Time;durP1;ratioP1;P1;durP2;ratioP2;P2;SDS_P1;SDS_P2;PMS_P1;PMS_P2;Temp;Humidity;BMP_temperature;BMP_pressure;BME280_temperature;BME280_humidity;BME280_pressure;Samples;Min_cycle;Max_cycle;Signal;HPM_P1;HPM_P2
2022/06/06 00:01:31;;;;;;;7.28;5.18;;;16.70;99.90;;;;;;4249038;27;20147;-81
2022/06/06 00:03:31;;;;;;;5.82;4.40;;;16.60;99.90;;;;;;4249328;27;20077;-81
2022/06/06 00:05:32;;;;;;;7.78;5.20;;;16.60;99.90;;;;;;4249209;27;20043;-81
2022/06/06 00:07:33;;;;;;;9.02;4.82;;;16.60;99.90;;;;;;4249159;27;20129;-81
2022/06/06 00:09:34;;;;;;;9.13;5.20;;;16.50;99.90;;;;;;4249295;27;20509;-81
2022/06/06 00:11:36;;;;;;;7.03;4.60;;;16.50;99.90;;;;;;4248979;27;20051;-81
2022/06/06 00:13:39;;;;;;;7.93;5.50;;;16.50;99.90;;;;;;4248430;27;20046;-81
2022/06/06 00:15:40;;;;;;;10.18;5.40;;;16.40;99.90;;;;;;4248934;27;20090;-81
2022/06/06 00:17:40;;;;;;;8.77;5.53;;;16.40;99.90;;;;;;4249455;27;20395;-80
2022/06/06 00:19:41;;;;;;;8.70;5.13;;;16.40;99.90;;;;;;4249702;27;20039;-81
2022/06/06 00:21:43;;;;;;;11.98;5.85;;;16.40;99.90;;;;;;4248895;27;20043;-80
2022/06/06 00:23:43;;;;;;;7.43;4.85;;;16.30;99.90;;;;;;4230519;28;20108;-81
2022/06/06 00:25:44;;;;;;;8.50;5.20;;;16.30;99.90;;;;;;4229971;28;20051;-81
2022/06/06 00:27:45;;;;;;;8.40;5.78;;;16.30;99.90;;;;;;4229493;28;20507;-81
2022/06/06 00:29:45;;;;;;;8.68;5.95;;;16.20;99.90;;;;;;4248211;27;20042;-81
2022/06/06 00:36:24;;;;;;;9.55;5.65;;;16.10;99.90;;;;;;4248289;27;19968;-81
2022/06/06 00:38:26;;;;;;;9.82;5.30;;;16.10;99.90;;;;;;4248338;27;20043;-81
2022/06/06 00:40:27;;;;;;;9.45;5.68;;;16.10;99.90;;;;;;4248595;27;20110;-81
2022/06/06 00:42:34;;;;;;;8.82;5.55;;;16.00;99.90;;;;;;4248510;27;20035;-81
2022/06/06 00:44:34;;;;;;;7.25;5.00;;;16.00;99.90;;;;;;4248486;27;20043;-81
2022/06/06 00:46:40;;;;;;;9.15;5.45;;;16.00;99.90;;;;;;4248111;27;20449;-81
2022/06/06 00:48:41;;;;;;;9.80;6.07;;;16.00;99.90;;;;;;4248388;27;20530;-81
2022/06/06 00:50:50;;;;;;;9.23;5.85;;;16.00;99.90;;;;;;4248457;27;20039;-81
2022/06/06 00:52:52;;;;;;;7.75;5.82;;;16.00;99.90;;;;;;4248171;27;20049;-81
2022/06/06 00:54:56;;;;;;;9.98;5.72;;;16.00;99.90;;;;;;4248564;27;20101;-82
2022/06/06 00:57:02;;;;;;;9.57;5.65;;;16.00;99.90;;;;;;4248171;27;20098;-81
2022/06/06 00:59:10;;;;;;;10.48;6.20;;;16.00;99.90;;;;;;4248467;27;20043;-82
2022/06/06 01:01:11;;;;;;;11.57;6.43;;;16.00;99.90;;;;;;4248157;27;20062;-82
2022/06/06 01:03:15;;;;;;;10.27;5.75;;;16.00;99.90;;;;;;4247801;27;20047;-82
2022/06/06 01:05:17;;;;;;;10.75;7.07;;;16.00;99.90;;;;;;4247677;27;20114;-82
2022/06/06 01:07:18;;;;;;;9.07;6.30;;;15.90;99.90;;;;;;4247801;27;20126;-82
2022/06/06 01:09:22;;;;;;;8.32;5.85;;;15.90;99.90;;;;;;4247568;27;20043;-82
2022/06/06 01:11:22;;;;;;;11.10;6.38;;;15.90;99.90;;;;;;4229561;28;20044;-80
2022/06/06 01:13:24;;;;;;;12.18;6.57;;;15.90;99.90;;;;;;4247921;27;20479;-80
2022/06/06 01:15:31;;;;;;;12.73;7.20;;;15.90;99.90;;;;;;4247791;27;20049;-81
2022/06/06 01:18:05;;;;;;;12.70;7.32;;;15.90;99.90;;;;;;4248519;27;20039;-81
2022/06/06 01:20:20;;;;;;;11.25;7.18;;;15.90;99.90;;;;;;4230029;28;20419;-81
2022/06/06 01:23:07;;;;;;;12.85;6.82;;;15.90;99.90;;;;;;4248140;27;20059;-81
2022/06/06 01:25:22;;;;;;;11.30;7.25;;;15.90;99.90;;;;;;4247254;27;20078;-80
2022/06/06 01:27:47;;;;;;;13.50;7.30;;;15.90;99.90;;;;;;4229603;28;20424;-81
2022/06/06 01:29:53;;;;;;;13.95;7.43;;;15.90;99.90;;;;;;4247754;27;20087;-81
2022/06/06 01:32:00;;;;;;;15.15;7.68;;;15.80;99.90;;;;;;4248169;27;20050;-80
2022/06/06 01:34:04;;;;;;;17.30;8.18;;;15.80;99.90;;;;;;4248000;27;20051;-81
2022/06/06 01:36:05;;;;;;;17.02;7.57;;;15.80;99.90;;;;;;4247755;27;20070;-80
2022/06/06 01:38:06;;;;;;;17.45;7.63;;;15.80;99.90;;;;;;4247728;27;20070;-81
2022/06/06 01:40:13;;;;;;;14.57;6.90;;;15.80;99.90;;;;;;4247131;27;20047;-81
2022/06/06 01:42:20;;;;;;;17.08;6.68;;;15.70;99.90;;;;;;4247558;27;20068;-81
2022/06/06 01:44:35;;;;;;;12.35;5.97;;;15.60;99.90;;;;;;4247873;27;20097;-81
2022/06/06 01:46:37;;;;;;;15.73;6.40;;;15.50;99.90;;;;;;4247824;27;20144;-81
2022/06/06 01:48:41;;;;;;;9.73;6.60;;;15.40;99.90;;;;;;4229464;28;20044;-81
2022/06/06 01:50:43;;;;;;;12.27;6.68;;;15.40;99.90;;;;;;4248133;27;20471;-82
2022/06/06 01:52:51;;;;;;;16.23;6.72;;;15.30;99.90;;;;;;4247588;27;20406;-81
2022/06/06 01:54:56;;;;;;;14.07;6.53;;;15.20;99.90;;;;;;4229262;28;20055;-82
2022/06/06 01:57:00;;;;;;;17.83;6.90;;;15.20;99.90;;;;;;4247569;27;20043;-82
2022/06/06 01:59:01;;;;;;;12.38;6.00;;;15.20;99.90;;;;;;4247242;27;20046;-82
2022/06/06 02:01:03;;;;;;;14.25;6.63;;;15.10;99.90;;;;;;4247576;28;20043;-82
2022/06/06 02:03:06;;;;;;;12.90;6.53;;;15.00;99.90;;;;;;4247326;28;20134;-82
2022/06/06 02:05:07;;;;;;;13.88;6.32;;;15.00;99.90;;;;;;4247589;28;20047;-81
2022/06/06 02:07:07;;;;;;;14.48;6.05;;;15.00;99.90;;;;;;4247060;28;20045;-81
2022/06/06 02:09:09;;;;;;;9.45;5.63;;;15.00;99.90;;;;;;4247703;28;20035;-81
2022/06/06 02:11:11;;;;;;;14.13;5.53;;;14.90;99.90;;;;;;4247548;28;20066;-81
2022/06/06 02:13:12;;;;;;;10.20;5.05;;;14.90;99.90;;;;;;4247665;28;20043;-82
2022/06/06 02:15:16;;;;;;;14.82;5.18;;;14.90;99.90;;;;;;4247128;28;20045;-81
2022/06/06 02:17:16;;;;;;;9.45;4.40;;;14.80;99.90;;;;;;4247586;28;20101;-81
2022/06/06 02:19:17;;;;;;;9.93;4.75;;;14.80;99.90;;;;;;4247491;28;20480;-81
2022/06/06 02:21:18;;;;;;;12.40;4.55;;;14.70;99.90;;;;;;4247498;28;20516;-81
2022/06/06 02:23:19;;;;;;;10.85;4.43;;;14.80;99.90;;;;;;4247519;28;20502;-81
2022/06/06 02:25:20;;;;;;;8.27;3.95;;;14.70;99.90;;;;;;4247359;28;20039;-81
2022/06/06 02:27:21;;;;;;;10.00;4.90;;;14.60;99.90;;;;;;4246765;28;20099;-81
2022/06/06 02:29:22;;;;;;;8.30;3.95;;;14.60;99.90;;;;;;4247451;28;20503;-82
2022/06/06 02:31:22;;;;;;;11.10;4.00;;;14.60;99.90;;;;;;4247516;28;20172;-81
2022/06/06 02:33:23;;;;;;;11.35;5.15;;;14.50;99.90;;;;;;4247551;28;20053;-81
2022/06/06 02:35:32;;;;;;;11.50;3.70;;;14.50;99.90;;;;;;4247827;28;20057;-81
2022/06/06 02:37:32;;;;;;;6.25;3.35;;;14.50;99.90;;;;;;4247639;28;20088;-81
2022/06/06 02:39:33;;;;;;;7.55;4.10;;;14.50;99.90;;;;;;4247441;28;20057;-81
2022/06/06 02:41:34;;;;;;;8.43;4.15;;;14.40;99.90;;;;;;4228571;28;20035;-81
2022/06/06 02:43:44;;;;;;;6.28;3.28;;;14.40;99.90;;;;;;4247095;28;20131;-81
2022/06/06 02:45:46;;;;;;;5.78;3.40;;;14.40;99.90;;;;;;4247369;28;20047;-81
2022/06/06 02:47:50;;;;;;;8.23;3.45;;;14.40;99.90;;;;;;4247401;28;20081;-81
2022/06/06 02:49:51;;;;;;;7.50;3.33;;;14.30;99.90;;;;;;4247151;28;20448;-81
2022/06/06 02:51:52;;;;;;;10.73;3.90;;;14.30;99.90;;;;;;4246874;28;20103;-81
2022/06/06 02:53:52;;;;;;;10.00;3.08;;;14.30;99.90;;;;;;4247311;28;20043;-81
2022/06/06 02:55:55;;;;;;;8.85;4.50;;;14.30;99.90;;;;;;4247170;28;20043;-81
2022/06/06 02:57:58;;;;;;;10.07;3.38;;;14.30;99.90;;;;;;4248206;27;20531;-81
2022/06/06 03:00:00;;;;;;;8.82;3.13;;;14.30;99.90;;;;;;4250247;27;20069;-81
2022/06/06 03:02:02;;;;;;;8.35;3.38;;;14.30;99.90;;;;;;4249840;27;20456;-81
2022/06/06 03:04:03;;;;;;;7.20;3.25;;;14.30;99.90;;;;;;4250398;27;20031;-81
2022/06/06 03:06:23;;;;;;;6.88;3.30;;;14.30;99.90;;;;;;4250381;27;20133;-81
2022/06/06 03:08:39;;;;;;;7.95;3.53;;;14.30;99.90;;;;;;4250285;27;20047;-81
2022/06/06 03:10:43;;;;;;;7.93;3.95;;;14.20;99.90;;;;;;4249891;27;20039;-81
2022/06/06 03:12:49;;;;;;;8.05;3.50;;;14.20;99.90;;;;;;4250236;27;20047;-81
2022/06/06 03:15:17;;;;;;;6.63;3.92;;;14.20;99.90;;;;;;4249937;27;20050;-81
2022/06/06 03:20:54;;;;;;;7.75;2.88;;;14.20;99.90;;;;;;4163873;28;20132;-81
2022/06/06 03:23:17;;;;;;;7.78;3.22;;;14.20;99.90;;;;;;4164384;28;20618;-81
2022/06/06 03:25:26;;;;;;;5.78;3.28;;;14.20;99.90;;;;;;4190253;27;20515;-81
2022/06/06 03:27:29;;;;;;;;;;;14.20;99.90;;;;;;4250406;27;20035;-82
2022/06/06 03:29:52;;;;;;;9.52;3.22;;;14.20;99.90;;;;;;4249869;27;19919;-81
2022/06/06 03:32:19;;;;;;;5.88;3.38;;;14.20;99.90;;;;;;4249424;27;20084;-81
2022/06/06 03:34:29;;;;;;;10.80;4.05;;;14.10;99.90;;;;;;4249802;27;20058;-81
2022/06/06 03:36:38;;;;;;;9.00;4.15;;;14.10;99.90;;;;;;4249628;27;20039;-81
2022/06/06 03:38:45;;;;;;;8.38;3.88;;;14.10;99.90;;;;;;4249716;27;20095;-80
2022/06/06 03:41:04;;;;;;;8.27;4.30;;;14.10;99.90;;;;;;4231217;28;20090;-80
2022/06/06 03:43:26;;;;;;;6.45;4.07;;;14.10;99.90;;;;;;4249768;27;20403;-80
2022/06/06 03:45:54;;;;;;;9.93;4.38;;;14.20;99.90;;;;;;4249318;27;20051;-81
2022/06/06 03:48:17;;;;;;;11.40;4.43;;;14.20;99.90;;;;;;4249590;27;20103;-80
2022/06/06 03:50:21;;;;;;;9.45;4.38;;;14.20;99.90;;;;;;4249946;27;20059;-80
2022/06/06 03:52:25;;;;;;;9.07;3.78;;;14.10;99.90;;;;;;4249172;27;20047;-81
2022/06/06 03:54:29;;;;;;;7.72;3.90;;;14.10;99.90;;;;;;4231001;28;20044;-80
2022/06/06 03:56:59;;;;;;;7.32;4.28;;;14.10;99.90;;;;;;4248492;27;20047;-80
2022/06/06 03:59:01;;;;;;;7.88;4.07;;;14.10;99.90;;;;;;4230747;28;20047;-80
2022/06/06 04:01:09;;;;;;;7.00;4.07;;;14.10;99.90;;;;;;4231469;28;20531;-80
2022/06/06 04:03:11;;;;;;;7.15;4.38;;;14.10;99.90;;;;;;4249812;27;20181;-80
2022/06/06 04:05:15;;;;;;;7.50;4.50;;;14.10;99.90;;;;;;4249380;27;20043;-81
2022/06/06 04:07:16;;;;;;;7.63;3.70;;;14.10;99.90;;;;;;4249519;27;20050;-80
2022/06/06 04:09:16;;;;;;;8.05;4.00;;;14.10;99.90;;;;;;4248176;27;20146;-81
2022/06/06 04:11:29;;;;;;;10.20;4.05;;;14.10;99.90;;;;;;4248571;27;20050;-80
2022/06/06 04:13:54;;;;;;;6.28;3.35;;;14.10;99.90;;;;;;4249245;27;20048;-80
2022/06/06 04:15:55;;;;;;;6.65;4.15;;;14.10;99.90;;;;;;4249230;27;20507;-80
2022/06/06 04:18:07;;;;;;;4.65;3.13;;;14.10;99.90;;;;;;4248817;27;20050;-80
2022/06/06 04:20:16;;;;;;;6.70;3.35;;;14.00;99.90;;;;;;4230280;28;20126;-82
2022/06/06 04:22:32;;;;;;;;;;;14.00;99.90;;;;;;4249658;27;20082;-81
2022/06/06 04:24:50;;;;;;;6.63;3.33;;;14.10;99.90;;;;;;4249038;27;19958;-82
2022/06/06 04:27:15;;;;;;;6.20;3.55;;;14.10;99.90;;;;;;4248987;27;20074;-81
2022/06/06 04:29:40;;;;;;;5.82;3.45;;;14.10;99.90;;;;;;4248910;27;20475;-82
2022/06/06 04:31:57;;;;;;;5.53;3.60;;;14.10;99.90;;;;;;4248721;27;20043;-81
2022/06/06 04:34:13;;;;;;;5.55;3.30;;;14.00;99.90;;;;;;4248975;27;20050;-82
2022/06/06 04:36:28;;;;;;;8.48;3.42;;;14.10;99.90;;;;;;4248818;27;20081;-81
2022/06/06 04:38:56;;;;;;;7.05;3.35;;;14.10;99.90;;;;;;4230219;28;20093;-81
2022/06/06 04:41:15;;;;;;;6.35;3.53;;;14.10;99.90;;;;;;4248468;27;20049;-81
2022/06/06 04:43:27;;;;;;;5.63;3.90;;;14.10;99.90;;;;;;4247691;27;20043;-81
2022/06/06 04:45:31;;;;;;;6.35;3.55;;;14.10;99.90;;;;;;4247547;27;20452;-81
2022/06/06 04:47:41;;;;;;;5.25;3.00;;;14.10;99.90;;;;;;4246885;27;20043;-81
2022/06/06 04:49:43;;;;;;;5.70;3.20;;;14.10;99.90;;;;;;4248154;27;20039;-81
2022/06/06 04:51:46;;;;;;;4.55;2.97;;;14.10;99.90;;;;;;4248513;27;20069;-81
2022/06/06 04:53:51;;;;;;;5.65;2.92;;;14.10;99.90;;;;;;4248429;27;20035;-81
2022/06/06 04:55:55;;;;;;;4.45;2.70;;;14.10;99.90;;;;;;4248483;27;20360;-81
2022/06/06 04:57:57;;;;;;;6.00;2.97;;;14.10;99.90;;;;;;4248121;27;20491;-81
2022/06/06 04:59:59;;;;;;;4.57;2.83;;;14.10;99.90;;;;;;4248355;27;20043;-81
2022/06/06 05:02:02;;;;;;;4.13;2.72;;;14.20;99.90;;;;;;4248698;27;20407;-81
2022/06/06 05:04:03;;;;;;;5.28;2.95;;;14.10;99.90;;;;;;4248446;27;20479;-81
2022/06/06 05:06:22;;;;;;;8.55;3.00;;;14.10;99.90;;;;;;4248247;27;20043;-81
2022/06/06 05:09:00;;;;;;;3.75;2.35;;;14.10;99.90;;;;;;4248754;27;20050;-81
2022/06/06 05:11:19;;;;;;;2.80;1.70;;;14.10;99.90;;;;;;4248331;27;20524;-81
2022/06/06 05:13:48;;;;;;;1.77;1.40;;;14.10;99.90;;;;;;4248315;27;20047;-81
2022/06/06 05:15:52;;;;;;;2.80;1.35;;;14.10;99.90;;;;;;4247957;27;20121;-81
2022/06/06 05:17:52;;;;;;;1.50;1.15;;;14.10;99.90;;;;;;4247863;27;20050;-82
2022/06/06 05:20:15;;;;;;;2.30;1.27;;;14.10;99.90;;;;;;4248166;27;20047;-81
2022/06/06 05:22:36;;;;;;;2.60;1.58;;;14.10;99.90;;;;;;4229465;28;20064;-81
2022/06/06 05:25:05;;;;;;;3.22;1.83;;;14.10;99.90;;;;;;4247838;27;20039;-81
2022/06/06 05:27:08;;;;;;;4.43;2.03;;;14.10;99.90;;;;;;4229345;28;20048;-81
2022/06/06 05:29:31;;;;;;;4.20;2.38;;;14.10;99.90;;;;;;4229747;28;20050;-81
2022/06/06 05:31:51;;;;;;;4.00;2.40;;;14.10;99.90;;;;;;4247830;27;20062;-81
2022/06/06 05:34:02;;;;;;;3.92;2.10;;;14.00;99.90;;;;;;4247699;27;20046;-81
2022/06/06 05:36:15;;;;;;;3.88;1.90;;;14.00;99.90;;;;;;4247874;27;20043;-82
2022/06/06 05:38:42;;;;;;;5.78;2.20;;;14.00;99.90;;;;;;4247812;27;20047;-82
2022/06/06 05:41:15;;;;;;;2.88;1.98;;;13.90;99.90;;;;;;4247434;27;20483;-82
2022/06/06 05:43:18;;;;;;;4.18;2.00;;;13.90;99.90;;;;;;4229944;28;20083;-81
2022/06/06 05:45:39;;;;;;;7.90;2.67;;;13.90;99.90;;;;;;4247943;27;20399;-82
2022/06/06 05:47:58;;;;;;;4.00;2.35;;;13.90;99.90;;;;;;4247547;27;20046;-82
2022/06/06 05:50:33;;;;;;;6.05;2.70;;;13.80;99.90;;;;;;4229279;28;20624;-81
2022/06/06 05:53:04;;;;;;;6.68;3.13;;;13.90;99.90;;;;;;4247262;27;20055;-81
2022/06/06 05:55:28;;;;;;;5.43;2.70;;;13.80;99.90;;;;;;4247430;27;20099;-81
2022/06/06 05:57:47;;;;;;;8.95;4.28;;;13.80;99.90;;;;;;4229206;28;20132;-82
2022/06/06 06:00:06;;;;;;;;;;;13.70;99.90;;;;;;4229834;28;20050;-81
2022/06/06 06:02:09;;;;;;;;;;;13.70;99.90;;;;;;4247582;28;20014;-81
2022/06/06 06:04:28;;;;;;;9.45;3.90;;;13.70;99.90;;;;;;4247687;28;20431;-81
2022/06/06 06:06:40;;;;;;;7.80;3.60;;;13.70;99.90;;;;;;4247886;28;20078;-81
2022/06/06 06:09:02;;;;;;;7.20;3.22;;;13.60;99.90;;;;;;4247430;28;20047;-81
2022/06/06 06:11:42;;;;;;;10.45;4.47;;;13.60;99.90;;;;;;4247060;28;20524;-81
2022/06/06 06:14:03;;;;;;;12.65;4.13;;;13.60;99.90;;;;;;4246367;28;20043;-81
2022/06/06 06:16:07;;;;;;;7.60;3.00;;;13.60;99.90;;;;;;4247615;28;20074;-81
2022/06/06 06:18:18;;;;;;;8.60;3.63;;;13.60;99.90;;;;;;4247469;28;20188;-82
2022/06/06 06:20:23;;;;;;;6.13;3.20;;;13.60;99.90;;;;;;4228782;28;20098;-81
2022/06/06 06:22:27;;;;;;;6.13;2.83;;;13.60;99.90;;;;;;4247124;28;20061;-81
2022/06/06 06:24:33;;;;;;;7.10;3.55;;;13.70;99.90;;;;;;4247497;28;20380;-81
2022/06/06 06:26:36;;;;;;;6.57;2.83;;;13.60;99.90;;;;;;4229300;28;20051;-81
2022/06/06 06:28:37;;;;;;;6.85;3.05;;;13.60;99.90;;;;;;4229319;28;20051;-81
2022/06/06 06:31:17;;;;;;;6.05;3.03;;;13.60;99.90;;;;;;4247405;28;20042;-81
2022/06/06 06:33:24;;;;;;;5.68;3.28;;;13.70;99.90;;;;;;4249273;27;20039;-81
2022/06/06 06:35:42;;;;;;;9.77;3.42;;;13.60;99.90;;;;;;4250378;27;20046;-81
2022/06/06 06:38:12;;;;;;;9.32;3.78;;;13.60;99.90;;;;;;4250538;27;20047;-82
2022/06/06 06:40:28;;;;;;;10.38;3.55;;;13.60;99.90;;;;;;4164897;28;20140;-81
2022/06/06 06:42:43;;;;;;;8.30;3.55;;;13.60;99.90;;;;;;4250035;27;20051;-81
2022/06/06 06:44:53;;;;;;;10.35;4.28;;;13.60;99.90;;;;;;4250634;27;20086;-81
2022/06/06 06:46:59;;;;;;;8.27;3.92;;;13.60;99.90;;;;;;4250454;27;20043;-81
2022/06/06 06:49:38;;;;;;;12.82;5.22;;;13.50;99.90;;;;;;4250578;27;20050;-81
2022/06/06 06:51:55;;;;;;;7.50;3.65;;;13.60;99.90;;;;;;4245686;27;20423;-82
2022/06/06 06:54:13;;;;;;;6.07;3.28;;;13.60;99.90;;;;;;4250218;27;20039;-81
2022/06/06 06:56:41;;;;;;;6.35;2.80;;;13.60;99.90;;;;;;4250008;27;20092;-82
2022/06/06 06:58:55;;;;;;;6.63;2.38;;;13.70;99.90;;;;;;4250281;27;20045;-81
2022/06/06 07:01:08;;;;;;;5.70;2.45;;;13.80;99.90;;;;;;4232497;28;20484;-82
2022/06/06 07:08:34;;;;;;;6.63;2.05;;;14.00;99.90;;;;;;4250255;27;20411;-81
2022/06/06 07:11:03;;;;;;;3.55;2.05;;;14.00;99.90;;;;;;4250315;27;20043;-81
2022/06/06 07:13:14;;;;;;;3.95;1.60;;;14.10;99.90;;;;;;4240369;27;20468;-81
2022/06/06 07:15:21;;;;;;;4.55;1.70;;;14.10;99.90;;;;;;4250489;27;20408;-81
2022/06/06 07:17:25;;;;;;;3.47;1.60;;;14.30;99.90;;;;;;4231880;28;20079;-81
2022/06/06 07:19:34;;;;;;;4.15;1.92;;;14.30;99.90;;;;;;4250135;27;20095;-81
2022/06/06 07:21:36;;;;;;;4.82;1.90;;;14.40;99.90;;;;;;4249750;27;20065;-81
2022/06/06 07:23:40;;;;;;;4.03;1.70;;;14.40;99.90;;;;;;4232330;28;20051;-80
2022/06/06 07:25:47;;;;;;;3.63;1.77;;;14.40;99.90;;;;;;4249517;27;20035;-81
2022/06/06 07:27:47;;;;;;;6.55;2.60;;;14.30;99.90;;;;;;4248922;27;20075;-81
2022/06/06 07:29:48;;;;;;;5.30;2.15;;;14.30;99.90;;;;;;4249769;27;20050;-81
2022/06/06 07:32:26;;;;;;;3.50;2.20;;;14.30;99.90;;;;;;4250228;27;20054;-81
2022/06/06 07:34:30;;;;;;;5.50;1.93;;;14.30;99.90;;;;;;4250343;27;20613;-81
2022/06/06 07:36:56;;;;;;;7.35;1.92;;;14.30;99.90;;;;;;4250790;27;20384;-81
2022/06/06 07:39:20;;;;;;;4.40;1.40;;;14.30;99.90;;;;;;4249243;27;20049;-81
2022/06/06 07:41:23;;;;;;;4.68;2.13;;;14.40;99.90;;;;;;4249379;27;20047;-81
2022/06/06 07:43:30;;;;;;;5.40;1.70;;;14.60;99.90;;;;;;4249351;27;20126;-81
2022/06/06 07:46:06;;;;;;;7.30;1.85;;;14.70;99.90;;;;;;4250296;27;20043;-81
2022/06/06 07:48:37;;;;;;;5.68;2.10;;;14.70;99.90;;;;;;4193434;27;20055;-81
2022/06/06 07:50:55;;;;;;;3.15;1.20;;;14.70;99.90;;;;;;4249429;27;20039;-81
2022/06/06 07:53:25;;;;;;;5.88;1.63;;;14.70;99.90;;;;;;4249625;27;20109;-82
2022/06/06 07:55:28;;;;;;;4.13;1.42;;;14.60;99.90;;;;;;4227168;27;20100;-81
2022/06/06 07:58:08;;;;;;;5.57;1.60;;;14.60;99.90;;;;;;4249390;27;20475;-82
2022/06/06 08:00:11;;;;;;;2.78;1.73;;;14.70;99.90;;;;;;4180576;28;20080;-82
2022/06/06 08:02:52;;;;;;;4.13;1.67;;;14.80;99.90;;;;;;4248937;27;20127;-81
2022/06/06 08:05:07;;;;;;;4.18;1.60;;;14.90;99.90;;;;;;4231219;28;20043;-82
2022/06/06 08:07:19;;;;;;;2.70;1.50;;;15.10;99.90;;;;;;4231293;28;20040;-81
2022/06/06 08:09:55;;;;;;;2.92;1.40;;;15.30;99.90;;;;;;4248774;27;20074;-82
2022/06/06 08:12:25;;;;;;;5.80;1.92;;;15.50;99.90;;;;;;4249132;27;20089;-82
2022/06/06 08:14:53;;;;;;;5.68;2.33;;;15.80;99.90;;;;;;4250482;27;20050;-81
2022/06/06 08:17:07;;;;;;;2.50;1.55;;;15.80;99.90;;;;;;4249298;27;20054;-81
2022/06/06 08:19:25;;;;;;;3.28;1.40;;;15.80;99.90;;;;;;4249041;27;20078;-82
2022/06/06 08:21:35;;;;;;;4.70;1.90;;;15.80;99.90;;;;;;4248875;27;20086;-82
2022/06/06 08:23:37;;;;;;;4.28;1.75;;;15.80;99.90;;;;;;4248526;27;20402;-82
2022/06/06 08:25:38;;;;;;;2.55;1.52;;;15.80;99.90;;;;;;4248959;27;20047;-81
2022/06/06 08:27:51;;;;;;;3.75;1.33;;;15.80;99.90;;;;;;4248764;27;20043;-82
2022/06/06 08:29:51;;;;;;;2.90;1.50;;;15.80;99.90;;;;;;4249135;27;20039;-81
2022/06/06 08:31:52;;;;;;;3.58;1.63;;;15.70;99.90;;;;;;4248678;27;20128;-81
2022/06/06 08:33:53;;;;;;;4.70;1.90;;;15.60;99.90;;;;;;4248822;27;20065;-81
2022/06/06 08:36:14;;;;;;;4.43;1.67;;;15.70;99.90;;;;;;4248372;27;20050;-81
2022/06/06 08:38:38;;;;;;;3.65;1.85;;;15.70;99.90;;;;;;4248700;27;20114;-82
2022/06/06 08:40:57;;;;;;;4.45;1.77;;;15.90;99.90;;;;;;4248496;27;20039;-82
2022/06/06 08:43:16;;;;;;;4.13;2.00;;;16.20;99.90;;;;;;4248246;27;20046;-81
2022/06/06 08:45:47;;;;;;;7.53;1.85;;;16.20;99.90;;;;;;4248644;27;20404;-81
2022/06/06 08:48:02;;;;;;;3.10;1.73;;;16.30;99.90;;;;;;4248715;27;20394;-82
2022/06/06 08:50:44;;;;;;;6.55;2.13;;;16.50;99.90;;;;;;4248386;27;20047;-82
2022/06/06 08:53:23;;;;;;;5.68;2.40;;;16.70;99.90;;;;;;4230377;28;20122;-81
2022/06/06 08:55:53;;;;;;;;;;;16.70;99.90;;;;;;4246180;27;20528;-82
2022/06/06 08:57:56;;;;;;;4.18;1.58;;;16.70;99.90;;;;;;4248296;27;20010;-82
2022/06/06 09:00:30;;;;;;;8.10;1.67;;;16.60;99.90;;;;;;4230245;28;20077;-81
2022/06/06 09:02:49;;;;;;;5.28;1.67;;;16.40;99.90;;;;;;4248394;27;20051;-82
2022/06/06 09:05:21;;;;;;;7.97;1.90;;;16.20;99.90;;;;;;4248565;27;20088;-81
2022/06/06 09:07:53;;;;;;;5.57;1.48;;;16.00;99.90;;;;;;4248143;27;20104;-82
2022/06/06 09:10:12;;;;;;;5.95;1.80;;;16.00;99.90;;;;;;4247846;27;20043;-81
2022/06/06 09:12:16;;;;;;;2.67;1.40;;;16.00;99.90;;;;;;4248199;27;20053;-82
2022/06/06 09:14:50;;;;;;;3.58;1.70;;;15.90;99.90;;;;;;4248297;27;20123;-82
2022/06/06 09:17:00;;;;;;;2.38;1.50;;;15.90;99.90;;;;;;4248254;27;20043;-81
2022/06/06 09:19:19;;;;;;;2.47;1.55;;;15.80;99.90;;;;;;4248043;27;20039;-82
2022/06/06 09:21:45;;;;;;;4.07;1.60;;;15.90;99.90;;;;;;4247741;27;20054;-82
2022/06/06 09:24:07;;;;;;;3.80;1.63;;;15.90;99.90;;;;;;4246847;28;20108;-81
2022/06/06 09:26:25;;;;;;;6.95;1.90;;;15.80;99.90;;;;;;4247593;28;20064;-80
2022/06/06 09:28:47;;;;;;;3.38;2.05;;;15.90;99.90;;;;;;4247480;28;20095;-81
2022/06/06 09:31:24;;;;;;;5.18;2.38;;;16.00;99.90;;;;;;4247083;28;20043;-82
2022/06/06 09:34:03;;;;;;;5.78;1.85;;;16.10;99.90;;;;;;4247297;28;20035;-81
2022/06/06 09:36:40;;;;;;;4.53;2.50;;;16.10;99.90;;;;;;4226179;28;20535;-81
2022/06/06 09:39:00;;;;;;;7.35;1.90;;;16.30;99.90;;;;;;4246865;28;20047;-80
2022/06/06 09:41:27;;;;;;;5.43;2.22;;;16.80;99.90;;;;;;4229612;28;20089;-81
2022/06/06 09:43:56;;;;;;;8.80;2.50;;;17.30;99.90;;;;;;4229192;28;20188;-81
2022/06/06 09:46:32;;;;;;;5.32;2.30;;;17.60;99.90;;;;;;4247654;28;20043;-81
2022/06/06 09:49:00;;;;;;;4.03;1.88;;;17.90;99.90;;;;;;4194483;28;20047;-81
2022/06/06 09:51:28;;;;;;;8.57;2.10;;;18.10;99.90;;;;;;4246993;28;20043;-81
2022/06/06 09:59:01;;;;;;;2.38;1.77;;;17.90;99.90;;;;;;4247174;28;20047;-81
2022/06/06 09:59:02;;;;;;;;;;;17.60;99.90;;;;;;4247497;27;20047;-81
2022/06/06 10:01:08;;;;;;;4.50;1.38;;;17.60;99.90;;;;;;4240924;28;19926;-81
2022/06/06 10:03:32;;;;;;;6.13;1.60;;;17.60;99.90;;;;;;4228682;28;20082;-81
2022/06/06 10:06:09;;;;;;;5.55;1.50;;;17.70;99.90;;;;;;4246878;28;20043;-81
2022/06/06 10:08:45;;;;;;;3.72;0.90;;;17.80;99.50;;;;;;4246619;27;20505;-81
2022/06/06 10:11:04;;;;;;;2.67;1.00;;;17.90;98.80;;;;;;4248766;28;20463;-81
2022/06/06 10:13:05;;;;;;;7.53;1.35;;;18.20;99.00;;;;;;4248037;28;20045;-81
2022/06/06 10:15:15;;;;;;;1.92;1.00;;;18.30;99.70;;;;;;4249510;28;20054;-81
2022/06/06 10:17:54;;;;;;;4.70;0.93;;;18.40;98.20;;;;;;4247543;28;20039;-82
2022/06/06 10:20:48;;;;;;;2.80;0.90;;;18.40;95.30;;;;;;4229833;28;20055;-81
2022/06/06 10:23:18;;;;;;;3.30;0.90;;;18.60;95.90;;;;;;4173650;28;1099297;-82
2022/06/06 10:25:49;;;;;;;5.22;0.95;;;18.80;94.80;;;;;;4248440;28;20158;-82
2022/06/06 10:28:19;;;;;;;4.13;1.35;;;18.90;93.90;;;;;;4248052;28;20047;-82
2022/06/06 10:31:00;;;;;;;3.45;1.00;;;19.00;96.30;;;;;;4248035;28;20059;-82
2022/06/06 10:33:16;;;;;;;1.98;0.80;;;19.00;96.00;;;;;;4196806;28;20079;-82
2022/06/06 10:35:53;;;;;;;2.67;0.93;;;19.00;93.80;;;;;;4248338;28;20039;-82
2022/06/06 10:38:01;;;;;;;3.70;0.77;;;18.90;91.90;;;;;;4247784;28;20039;-82
2022/06/06 10:40:25;;;;;;;4.30;1.17;;;19.10;92.00;;;;;;4248222;28;20046;-81
2022/06/06 10:42:48;;;;;;;7.45;0.90;;;19.40;94.20;;;;;;4250829;28;20055;-82
2022/06/06 10:45:10;;;;;;;7.07;1.50;;;19.60;93.20;;;;;;4216005;28;20095;-82
2022/06/06 10:47:10;;;;;;;2.30;0.77;;;19.60;92.10;;;;;;4252397;28;20038;-81
2022/06/06 10:49:39;;;;;;;2.65;0.70;;;19.40;92.00;;;;;;4252125;28;20070;-81
2022/06/06 10:51:58;;;;;;;5.38;0.93;;;19.30;90.70;;;;;;4249774;28;20054;-81
2022/06/06 10:54:19;;;;;;;2.97;1.02;;;19.10;88.30;;;;;;4248039;28;20498;-81
2022/06/06 10:56:53;;;;;;;4.60;0.70;;;19.10;92.80;;;;;;4251144;28;20380;-82
2022/06/06 10:59:32;;;;;;;2.83;0.98;;;19.00;91.70;;;;;;4232484;28;20047;-81
2022/06/06 11:01:41;;;;;;;1.67;0.73;;;19.20;91.00;;;;;;4210302;28;20047;-81
2022/06/06 11:03:56;;;;;;;6.60;0.98;;;19.40;92.20;;;;;;4250978;28;20047;-82
2022/06/06 11:06:13;;;;;;;2.65;0.65;;;19.50;89.40;;;;;;4231544;28;20051;-81
2022/06/06 11:08:39;;;;;;;3.65;0.80;;;19.60;86.60;;;;;;4249434;28;20050;-81
2022/06/06 11:11:04;;;;;;;5.35;1.25;;;19.60;90.10;;;;;;4249346;28;20115;-82
2022/06/06 11:13:33;;;;;;;2.30;0.63;;;19.40;90.60;;;;;;4249381;28;20043;-82
2022/06/06 11:15:38;;;;;;;3.15;0.70;;;19.30;90.20;;;;;;4250854;28;20047;-80
2022/06/06 11:17:51;;;;;;;4.28;1.00;;;19.20;91.80;;;;;;4251439;28;20486;-82
2022/06/06 11:20:10;;;;;;;3.97;0.80;;;19.30;91.60;;;;;;4252505;27;20411;-81
2022/06/06 11:22:13;;;;;;;4.63;0.70;;;19.20;90.50;;;;;;4237037;28;20052;-81
2022/06/06 11:24:40;;;;;;;6.28;0.70;;;19.10;90.60;;;;;;4254762;27;20387;-82
2022/06/06 11:27:25;;;;;;;3.67;0.80;;;19.20;85.50;;;;;;4254480;27;20091;-82
2022/06/06 11:30:07;;;;;;;10.75;1.30;;;19.30;83.90;;;;;;4252943;27;20039;-82
2022/06/06 11:32:13;;;;;;;2.65;0.50;;;19.30;84.20;;;;;;4234852;28;20056;-82
2022/06/06 11:34:41;;;;;;;4.47;0.68;;;19.50;87.60;;;;;;4254234;27;20111;-82
2022/06/06 11:37:05;;;;;;;5.53;0.70;;;19.60;87.30;;;;;;4255346;27;20514;-82
2022/06/06 11:39:09;;;;;;;8.52;0.77;;;19.40;86.00;;;;;;4254037;27;20043;-82
2022/06/06 11:41:39;;;;;;;8.23;0.93;;;19.20;86.20;;;;;;4253872;27;20043;-82
2022/06/06 11:44:06;;;;;;;2.08;0.90;;;18.90;84.20;;;;;;4254612;27;20470;-82
2022/06/06 11:46:28;;;;;;;7.82;1.05;;;18.50;90.60;;;;;;4251589;27;20137;-81
2022/06/06 11:48:50;;;;;;;4.50;0.90;;;18.10;92.80;;;;;;4250714;27;20410;-81
2022/06/06 11:51:35;;;;;;;4.63;1.10;;;17.80;94.40;;;;;;4232851;28;20058;-81
2022/06/06 11:53:54;;;;;;;2.85;0.80;;;17.80;95.40;;;;;;4251104;27;20100;-81